Accueil
METAR-TAF:

METAR-TAF

Aéroports :

Corona, Californie, États-Unis

latitude: 33-53-52N, longitude: 117-36-09W, altitude: 162 m

Observation

Le bulletin a été fait il y a 33 minutes, à 05:16 UTC
Vent calme
Température 15°C
Humidité 100%
Pression 1020 hPa
Visibilité: 12.9 km
Nuages fragmentés à une hauteur de 400 ft
Ciel couvert à une hauteur de 1800 ft

METAR: KAJO 080516Z AUTO 00000KT 8SM BKN004 OVC018 15/15 A3011 RMK AO2 RAE04 PNO $

Heure: 21:49 (05:49 UTC)


TAF: absent

Observations et prévisions météorologiques de plus de 4000 aéroports (messages METAR et TAF).

Les stations disponibles sont représentées par des disques jaunes et rouges sur la carte.

Passer la souris dessus pour voir le nom de la station.

Cliquer dessus pour voir les observations et prévisions météorologiques.

Pour changer de carte: cliquez sur les boutons verts avec une croix noire pour zoomer, sur le bouton vert avec un tiret pour effectuer un zoom arrière, ou sur les flèches vertes pour les cartes adjacentes.


METAR-TAF: